Reepham, United Kingdom
Current Conditions -  °F | °C
As of 8:50 AM on Friday 31 Oct 2014 (Local Time) from EGXW Reporting Station
Moderate Fog Moderate Fog  
Wind Chill: 55°   Ceiling: Unl
Heat Index: 55°   Visibility: 0.12mi
Dew Point: 55°   Wind: 6mph
Humidity: 100%   Direction: 140°SE
Pressure: 29.97"   Gusts: NA
Location:  53.23°N, 0.43°W
Report Text: EGXW 310850Z 14005KT 0200 FG OVC000 13/13 Q1015 RED BECMG 2000 BR BKN003 YLO2
Loading
Personal Weather Stations






























Interactive Weather Map New forecast layout! Learn more

10-Day Weather Forecast

Advertisements
Track Severe Weather on mobile